Time;durP1;ratioP1;P1;durP2;ratioP2;P2;SDS_P1;SDS_P2;PMS_P1;PMS_P2;Temp;Humidity;BMP_temperature;BMP_pressure;BME280_temperature;BME280_humidity;BME280_pressure;Samples;Min_cycle;Max_cycle;Signal;HPM_P1;HPM_P2
2022/01/09 00:01:37;;;;;;;12.13;5.97;;;-1.20;99.90;;;;;;4941700;29;20095;-96
2022/01/09 00:04:03;;;;;;;15.27;6.57;;;-1.20;99.90;;;;;;4939716;29;20083;-96
2022/01/09 00:06:28;;;;;;;16.60;6.95;;;-1.20;99.90;;;;;;4939423;29;20530;-96
2022/01/09 00:08:54;;;;;;;19.13;6.93;;;-1.20;99.90;;;;;;4939651;29;20106;-96
2022/01/09 00:11:26;;;;;;;13.88;6.68;;;-1.20;99.90;;;;;;4940874;29;20478;-96
2022/01/09 00:13:56;;;;;;;11.88;5.80;;;-1.20;99.90;;;;;;4940396;29;20032;-96
2022/01/09 00:16:23;;;;;;;12.50;6.82;;;-1.20;99.90;;;;;;4939391;29;20031;-96
2022/01/09 00:18:50;;;;;;;15.00;6.10;;;-1.20;99.90;;;;;;4938606;29;20027;-96
2022/01/09 00:21:16;;;;;;;12.02;6.47;;;-1.20;99.90;;;;;;4941126;29;20028;-96
2022/01/09 00:23:43;;;;;;;12.18;6.30;;;-1.10;99.90;;;;;;4940130;29;20032;-96
2022/01/09 00:26:09;;;;;;;13.63;6.63;;;-1.10;99.90;;;;;;4939970;29;20028;-96
2022/01/09 00:28:35;;;;;;;12.63;6.13;;;-1.10;99.90;;;;;;4938953;29;20360;-96
2022/01/09 00:31:01;;;;;;;11.63;6.22;;;-1.10;99.90;;;;;;4938297;29;20028;-96
2022/01/09 00:33:27;;;;;;;12.13;5.97;;;-1.10;99.90;;;;;;4938459;29;20034;-96
2022/01/09 00:35:53;;;;;;;19.77;7.20;;;-1.10;99.90;;;;;;4938031;29;20035;-96
2022/01/09 00:38:19;;;;;;;17.95;6.65;;;-1.10;99.90;;;;;;4938906;29;20126;-96
2022/01/09 00:40:45;;;;;;;17.10;6.88;;;-1.10;99.90;;;;;;4938015;29;20123;-96
2022/01/09 00:43:11;;;;;;;13.65;6.47;;;-1.10;99.90;;;;;;4938737;29;20063;-96
2022/01/09 00:45:40;;;;;;;14.63;6.35;;;-1.10;99.90;;;;;;4938088;29;20028;-96
2022/01/09 00:48:07;;;;;;;12.45;5.97;;;-1.10;99.80;;;;;;4939965;29;20024;-96
2022/01/09 00:50:36;;;;;;;12.95;6.35;;;-1.20;99.90;;;;;;4939322;29;20030;-96
2022/01/09 00:53:04;;;;;;;15.05;6.53;;;-1.10;99.90;;;;;;4939152;29;20084;-96
2022/01/09 00:55:30;;;;;;;14.07;6.75;;;-1.10;99.90;;;;;;4938487;29;20051;-96
2022/01/09 00:57:56;;;;;;;14.65;6.57;;;-1.20;99.90;;;;;;4937729;29;20061;-96
2022/01/09 01:00:21;;;;;;;13.38;6.18;;;-1.20;99.90;;;;;;4938218;29;20024;-96
2022/01/09 01:02:48;;;;;;;11.38;6.07;;;-1.10;99.90;;;;;;4937769;29;20039;-96
2022/01/09 01:05:14;;;;;;;15.35;6.60;;;-1.20;99.90;;;;;;4936792;29;20115;-96
2022/01/09 01:07:39;;;;;;;16.95;6.88;;;-1.30;99.90;;;;;;4937566;29;20016;-95
2022/01/09 01:10:06;;;;;;;15.65;6.90;;;-1.30;99.90;;;;;;4937487;29;20028;-96
2022/01/09 01:12:32;;;;;;;15.02;7.13;;;-1.40;99.90;;;;;;4937443;29;20027;-96
2022/01/09 01:14:58;;;;;;;15.95;7.32;;;-1.30;99.90;;;;;;4937610;29;20035;-96
2022/01/09 01:17:24;;;;;;;19.42;8.52;;;-1.40;99.90;;;;;;4937256;29;20032;-96
2022/01/09 01:19:52;;;;;;;17.27;8.20;;;-1.40;99.90;;;;;;4937362;29;20046;-96
2022/01/09 01:22:18;;;;;;;19.10;7.63;;;-1.50;99.90;;;;;;4937041;29;20024;-96
2022/01/09 01:24:45;;;;;;;19.77;9.52;;;-1.60;99.90;;;;;;4937139;29;20044;-96
2022/01/09 01:27:11;;;;;;;21.20;8.82;;;-1.60;99.90;;;;;;4936967;29;20032;-96
2022/01/09 01:29:38;;;;;;;21.65;9.07;;;-1.70;99.90;;;;;;4937083;29;20042;-96
2022/01/09 01:32:04;;;;;;;17.10;8.45;;;-1.70;99.90;;;;;;4937323;29;20542;-96
2022/01/09 01:34:32;;;;;;;15.55;8.00;;;-1.70;99.90;;;;;;4938024;29;20118;-96
2022/01/09 01:36:58;;;;;;;14.82;7.88;;;-1.60;99.90;;;;;;4936917;29;20039;-96
2022/01/09 01:39:24;;;;;;;16.65;8.50;;;-1.70;99.90;;;;;;4936883;29;20027;-96
2022/01/09 01:41:49;;;;;;;20.35;9.05;;;-1.70;99.90;;;;;;4936717;29;20040;-96
2022/01/09 01:44:16;;;;;;;18.92;9.40;;;-1.60;99.90;;;;;;4937029;29;20471;-96
2022/01/09 01:46:42;;;;;;;18.95;9.68;;;-1.70;99.90;;;;;;4937100;29;20024;-96
2022/01/09 01:49:11;;;;;;;19.40;9.80;;;-1.60;99.90;;;;;;4936893;29;20031;-96
2022/01/09 01:51:39;;;;;;;20.88;10.02;;;-1.60;99.90;;;;;;4936818;29;20043;-96
2022/01/09 01:54:05;;;;;;;21.67;9.35;;;-1.60;99.90;;;;;;4936726;29;20036;-96
2022/01/09 01:56:31;;;;;;;22.67;9.80;;;-1.60;99.90;;;;;;4936616;29;20115;-96
2022/01/09 01:58:58;;;;;;;17.90;9.35;;;-1.60;99.90;;;;;;4936452;29;20126;-96
2022/01/09 02:01:24;;;;;;;20.08;10.07;;;-1.60;99.90;;;;;;4936386;29;20034;-96
2022/01/09 02:03:50;;;;;;;20.55;8.90;;;-1.50;99.90;;;;;;4936452;29;20023;-96
2022/01/09 02:06:17;;;;;;;20.98;9.40;;;-1.60;99.90;;;;;;4936526;29;20027;-96
2022/01/09 02:08:43;;;;;;;20.98;9.25;;;-1.60;99.90;;;;;;4936931;29;20064;-96
2022/01/09 02:11:13;;;;;;;17.20;9.60;;;-1.60;99.90;;;;;;4936565;29;20067;-96
2022/01/09 02:13:40;;;;;;;18.52;9.60;;;-1.50;99.90;;;;;;4937290;29;20119;-96
2022/01/09 02:16:08;;;;;;;18.63;9.10;;;-1.50;99.90;;;;;;4936508;29;20509;-96
2022/01/09 02:18:33;;;;;;;20.50;9.07;;;-1.60;99.90;;;;;;4937333;29;20059;-96
2022/01/09 02:20:59;;;;;;;15.55;8.60;;;-1.60;99.90;;;;;;4936624;29;20082;-96
2022/01/09 02:23:26;;;;;;;16.83;8.07;;;-1.60;99.90;;;;;;4936344;29;20031;-95
2022/01/09 02:25:51;;;;;;;17.38;8.80;;;-1.60;99.90;;;;;;4936545;29;20023;-96
2022/01/09 02:28:18;;;;;;;15.35;8.15;;;-1.60;99.90;;;;;;4936281;29;20042;-96
2022/01/09 02:30:44;;;;;;;18.23;8.80;;;-1.60;99.90;;;;;;4936101;29;20111;-96
2022/01/09 02:33:17;;;;;;;18.08;9.45;;;-1.60;99.90;;;;;;4936486;29;20066;-96
2022/01/09 02:35:43;;;;;;;21.33;9.93;;;-1.60;99.90;;;;;;4936614;29;20115;-96
2022/01/09 02:38:09;;;;;;;18.52;8.98;;;-1.50;99.90;;;;;;4936326;29;20063;-96
2022/01/09 02:40:34;;;;;;;20.75;8.90;;;-1.60;99.90;;;;;;4936081;29;20063;-96
2022/01/09 02:43:00;;;;;;;17.52;9.70;;;-1.50;99.90;;;;;;4936328;29;20443;-96
2022/01/09 02:45:27;;;;;;;16.05;9.68;;;-1.50;99.90;;;;;;4936858;29;20162;-96
2022/01/09 02:47:55;;;;;;;17.70;9.15;;;-1.60;99.90;;;;;;4936097;29;20057;-96
2022/01/09 02:52:54;;;;;;;21.17;9.82;;;-1.60;99.90;;;;;;4937820;29;20063;-96
2022/01/09 02:55:21;;;;;;;17.15;9.00;;;-1.50;99.90;;;;;;4937500;29;20110;-96
2022/01/09 02:57:50;;;;;;;16.30;9.02;;;-1.60;99.90;;;;;;4936669;29;20031;-96
2022/01/09 03:00:22;;;;;;;14.45;8.68;;;-1.60;99.90;;;;;;4937751;29;20122;-96
2022/01/09 03:02:48;;;;;;;19.85;9.15;;;-1.60;99.90;;;;;;4937913;29;20565;-96
2022/01/09 03:05:14;;;;;;;18.40;9.43;;;-1.70;99.90;;;;;;4936373;29;20067;-96
2022/01/09 03:07:42;;;;;;;22.13;9.90;;;-1.70;99.90;;;;;;4936681;29;20024;-96
2022/01/09 03:10:09;;;;;;;18.80;9.55;;;-1.80;99.90;;;;;;4936918;29;20046;-96
2022/01/09 03:12:35;;;;;;;20.02;9.98;;;-1.80;99.90;;;;;;4937211;29;20055;-96
2022/01/09 03:15:01;;;;;;;18.25;9.40;;;-1.80;99.90;;;;;;4936254;29;20032;-96
2022/01/09 03:17:26;;;;;;;23.70;10.52;;;-1.80;99.90;;;;;;4936218;29;20368;-96
2022/01/09 03:19:52;;;;;;;18.23;8.73;;;-1.80;99.90;;;;;;4937344;29;20059;-95
2022/01/09 03:22:18;;;;;;;17.05;9.10;;;-1.80;99.90;;;;;;4936318;29;20031;-96
2022/01/09 03:24:44;;;;;;;18.48;8.88;;;-1.80;99.90;;;;;;4938195;29;20031;-96
2022/01/09 03:27:11;;;;;;;17.83;8.43;;;-1.80;99.90;;;;;;4937988;29;20053;-96
2022/01/09 03:29:37;;;;;;;18.60;9.60;;;-1.80;99.90;;;;;;4939789;29;20031;-96
2022/01/09 03:32:03;;;;;;;24.30;10.07;;;-1.90;99.90;;;;;;4940019;29;20028;-96
2022/01/09 03:34:29;;;;;;;22.42;10.48;;;-1.90;99.90;;;;;;4939411;29;20091;-96
2022/01/09 03:36:54;;;;;;;22.45;10.20;;;-1.80;99.90;;;;;;4939805;29;20024;-96
2022/01/09 03:39:20;;;;;;;28.42;11.20;;;-1.80;99.90;;;;;;4939293;29;20038;-95
2022/01/09 03:41:46;;;;;;;26.45;11.80;;;-1.80;99.90;;;;;;4941586;29;20534;-96
2022/01/09 03:44:12;;;;;;;30.60;13.75;;;-1.80;99.90;;;;;;4939470;29;20054;-96
2022/01/09 03:46:37;;;;;;;28.35;12.25;;;-1.80;99.90;;;;;;4940054;29;20087;-96
2022/01/09 03:49:03;;;;;;;27.35;11.90;;;-1.90;99.90;;;;;;4939020;29;20076;-96
2022/01/09 03:51:33;;;;;;;25.65;12.50;;;-1.90;99.90;;;;;;4941487;29;20035;-96
2022/01/09 03:53:59;;;;;;;27.38;12.52;;;-1.90;99.90;;;;;;4939318;29;20048;-93
2022/01/09 03:56:25;;;;;;;34.38;14.18;;;-1.90;99.90;;;;;;4938649;29;20485;-95
2022/01/09 03:58:51;;;;;;;33.47;14.32;;;-1.90;99.90;;;;;;4938679;29;20028;-96
2022/01/09 04:01:17;;;;;;;35.63;14.77;;;-1.90;99.90;;;;;;4938880;29;20089;-95
2022/01/09 04:03:43;;;;;;;26.02;11.98;;;-1.90;99.90;;;;;;4938546;29;20035;-95
2022/01/09 04:06:08;;;;;;;29.30;13.95;;;-1.90;99.90;;;;;;4938696;29;20028;-96
2022/01/09 04:08:34;;;;;;;32.60;14.38;;;-1.90;99.90;;;;;;4939406;29;20028;-96
2022/01/09 04:11:04;;;;;;;33.30;13.52;;;-1.90;99.90;;;;;;4939627;29;20114;-96
2022/01/09 04:13:31;;;;;;;28.65;13.02;;;-1.90;99.90;;;;;;4938871;29;20034;-96
2022/01/09 04:15:57;;;;;;;35.80;14.02;;;-1.80;99.90;;;;;;4939224;29;20035;-96
2022/01/09 04:18:23;;;;;;;31.80;13.05;;;-1.80;99.90;;;;;;4939525;29;20023;-96
2022/01/09 04:20:51;;;;;;;35.50;14.10;;;-1.90;99.90;;;;;;4939379;29;20027;-96
2022/01/09 04:23:18;;;;;;;41.03;15.18;;;-1.90;99.90;;;;;;4938982;29;20198;-96
2022/01/09 04:25:45;;;;;;;32.53;14.50;;;-1.90;99.90;;;;;;4938403;29;20024;-96
2022/01/09 04:28:11;;;;;;;30.95;14.05;;;-1.90;99.90;;;;;;4939044;29;20028;-96
2022/01/09 04:30:38;;;;;;;33.42;13.43;;;-1.90;99.90;;;;;;4939831;29;20481;-96
2022/01/09 04:33:03;;;;;;;36.60;14.40;;;-1.90;99.90;;;;;;4938169;29;20028;-96
2022/01/09 04:35:29;;;;;;;30.38;14.13;;;-1.80;99.90;;;;;;4938060;29;20603;-96
2022/01/09 04:37:55;;;;;;;42.35;15.02;;;-1.90;99.90;;;;;;4938528;29;20038;-96
2022/01/09 04:40:21;;;;;;;40.97;16.40;;;-1.80;99.90;;;;;;4938138;29;20024;-96
2022/01/09 04:45:18;;;;;;;35.03;16.67;;;-1.80;99.90;;;;;;4940314;29;20035;-95
2022/01/09 04:47:47;;;;;;;34.08;15.25;;;-1.80;99.90;;;;;;4939835;29;20024;-94
2022/01/09 04:50:19;;;;;;;39.38;15.45;;;-1.90;99.90;;;;;;4937645;29;20048;-96
2022/01/09 04:52:46;;;;;;;38.45;16.58;;;-1.80;99.90;;;;;;4937648;29;20530;-96
2022/01/09 04:55:12;;;;;;;43.42;17.38;;;-1.90;99.90;;;;;;4937504;29;20027;-96
2022/01/09 04:57:38;;;;;;;41.40;17.42;;;-1.90;99.90;;;;;;4937781;29;20042;-94
2022/01/09 05:00:06;;;;;;;39.42;16.83;;;-1.80;99.90;;;;;;4937472;29;20087;-95
2022/01/09 05:02:32;;;;;;;45.45;19.13;;;-1.80;99.90;;;;;;4938805;29;20570;-96
2022/01/09 05:04:58;;;;;;;49.78;20.00;;;-1.80;99.90;;;;;;4937231;29;20063;-96
2022/01/09 05:08:18;;;;;;;50.40;20.75;;;-1.90;99.90;;;;;;4937298;29;20020;-95
2022/01/09 05:10:44;;;;;;;45.72;20.65;;;-1.90;99.90;;;;;;4937197;29;20490;-96
2022/01/09 05:13:10;;;;;;;51.97;20.98;;;-1.90;99.90;;;;;;4937149;29;20547;-93
2022/01/09 05:15:42;;;;;;;50.92;20.38;;;-1.90;99.90;;;;;;4938319;29;20028;-96
2022/01/09 05:18:14;;;;;;;46.95;20.40;;;-1.90;99.90;;;;;;4940857;29;20040;-95
2022/01/09 05:20:44;;;;;;;49.53;21.00;;;-2.00;99.90;;;;;;4937561;29;20041;-96
2022/01/09 05:23:11;;;;;;;51.83;21.83;;;-1.90;99.90;;;;;;4938045;29;20023;-95
2022/01/09 05:25:37;;;;;;;50.05;21.70;;;-1.90;99.90;;;;;;4938783;29;20078;-95
2022/01/09 05:28:04;;;;;;;45.47;21.10;;;-1.90;99.90;;;;;;4937428;29;20024;-96
2022/01/09 05:30:30;;;;;;;52.03;23.45;;;-1.90;99.90;;;;;;4939691;29;20031;-96
2022/01/09 05:32:56;;;;;;;48.60;20.23;;;-1.80;99.90;;;;;;4936861;29;20079;-95
2022/01/09 05:35:22;;;;;;;51.63;20.42;;;-1.80;99.90;;;;;;4937620;29;20020;-96
2022/01/09 05:37:48;;;;;;;44.40;19.63;;;-1.80;99.90;;;;;;4936879;29;20179;-96
2022/01/09 05:40:14;;;;;;;49.92;20.98;;;-1.80;99.90;;;;;;4937594;29;20055;-94
2022/01/09 05:42:40;;;;;;;43.50;20.25;;;-1.80;99.90;;;;;;4936504;29;20427;-94
2022/01/09 05:45:08;;;;;;;47.33;20.15;;;-1.70;99.90;;;;;;4936668;29;20459;-94
2022/01/09 05:47:33;;;;;;;50.28;19.23;;;-1.70;99.90;;;;;;4936688;29;20031;-95
2022/01/09 05:49:59;;;;;;;48.28;21.45;;;-1.60;99.90;;;;;;4936543;29;20024;-96
2022/01/09 05:52:25;;;;;;;46.47;19.55;;;-1.60;99.90;;;;;;4936473;29;20055;-96
2022/01/09 05:54:50;;;;;;;51.50;19.00;;;-1.60;99.90;;;;;;4936627;29;20371;-95
2022/01/09 05:57:16;;;;;;;45.35;19.13;;;-1.60;99.90;;;;;;4936528;29;20031;-96
2022/01/09 05:59:42;;;;;;;49.70;20.15;;;-1.60;99.90;;;;;;4936556;29;20118;-95
2022/01/09 06:02:07;;;;;;;46.92;20.77;;;-1.60;99.90;;;;;;4936160;29;20024;-90
2022/01/09 06:04:33;;;;;;;54.40;20.48;;;-1.50;99.90;;;;;;4936443;29;20028;-89
2022/01/09 06:06:59;;;;;;;44.00;19.90;;;-1.50;99.90;;;;;;4936100;29;20020;-90
2022/01/09 06:09:24;;;;;;;42.55;18.30;;;-1.50;99.90;;;;;;4936028;29;20070;-90
2022/01/09 06:11:50;;;;;;;46.97;19.85;;;-1.50;99.90;;;;;;4936108;29;20502;-89
2022/01/09 06:14:16;;;;;;;44.35;18.30;;;-1.50;99.90;;;;;;4935861;29;20023;-90
2022/01/09 06:16:42;;;;;;;44.47;19.08;;;-1.50;99.90;;;;;;4935947;29;20054;-90
2022/01/09 06:19:08;;;;;;;47.65;18.92;;;-1.60;99.90;;;;;;4935981;29;20478;-90
2022/01/09 06:21:34;;;;;;;48.40;18.90;;;-1.50;99.90;;;;;;4935703;29;20067;-90
2022/01/09 06:23:59;;;;;;;50.33;19.58;;;-1.50;99.90;;;;;;4917397;29;20026;-89
2022/01/09 06:26:25;;;;;;;50.35;20.55;;;-1.50;99.90;;;;;;4926356;29;20035;-89
2022/01/09 06:28:51;;;;;;;45.67;20.40;;;-1.50;99.90;;;;;;4936041;29;20444;-89
2022/01/09 06:31:17;;;;;;;45.00;18.60;;;-1.50;99.90;;;;;;4935997;29;20035;-90
2022/01/09 06:33:43;;;;;;;53.50;19.85;;;-1.40;99.90;;;;;;4935862;29;20453;-89
2022/01/09 06:36:09;;;;;;;47.38;19.40;;;-1.40;99.90;;;;;;4936045;29;20119;-89
2022/01/09 06:38:37;;;;;;;49.25;21.17;;;-1.30;99.90;;;;;;4935909;29;20035;-89
2022/01/09 06:41:03;;;;;;;56.92;21.88;;;-1.40;99.90;;;;;;4935755;29;20487;-89
2022/01/09 06:43:28;;;;;;;47.30;19.60;;;-1.40;99.90;;;;;;4934696;29;20031;-89
2022/01/09 06:45:54;;;;;;;46.38;19.20;;;-1.40;99.90;;;;;;4935805;29;20051;-89
2022/01/09 06:48:19;;;;;;;49.13;18.85;;;-1.30;99.90;;;;;;4936023;29;20031;-88
2022/01/09 06:50:45;;;;;;;56.92;19.17;;;-1.30;99.90;;;;;;4935797;29;20505;-89
2022/01/09 06:53:11;;;;;;;53.10;20.48;;;-1.30;99.90;;;;;;4935753;29;20506;-89
2022/01/09 06:55:37;;;;;;;50.03;20.40;;;-1.30;99.90;;;;;;4935715;29;20382;-90
2022/01/09 06:58:02;;;;;;;57.35;21.38;;;-1.30;99.90;;;;;;4935927;29;20130;-89
2022/01/09 07:00:28;;;;;;;50.97;20.65;;;-1.30;99.90;;;;;;4935945;29;20542;-89
2022/01/09 07:02:54;;;;;;;47.55;19.55;;;-1.30;99.90;;;;;;4935678;29;20039;-90
2022/01/09 07:05:22;;;;;;;55.40;19.35;;;-1.30;99.90;;;;;;4939486;29;20115;-91
2022/01/09 14:57:19;;;;;;;166.85;42.00;;;-0.30;99.90;;;;;;5074977;28;20391;-89
2022/01/09 14:59:45;;;;;;;181.07;51.22;;;-0.30;99.90;;;;;;5070260;28;20080;-90
2022/01/09 15:02:11;;;;;;;156.18;40.75;;;-0.20;99.90;;;;;;5070456;28;20364;-90
2022/01/09 15:04:36;;;;;;;117.68;33.88;;;-0.20;99.90;;;;;;5069755;28;20491;-89
2022/01/09 15:07:02;;;;;;;125.10;34.60;;;-0.10;99.90;;;;;;5070333;28;20479;-90
2022/01/09 15:09:28;;;;;;;130.40;42.83;;;-0.10;99.90;;;;;;5069664;28;20028;-89
2022/01/09 15:11:54;;;;;;;142.65;44.38;;;-0.10;99.90;;;;;;5061283;28;20017;-89
2022/01/09 15:14:20;;;;;;;117.20;38.45;;;-0.10;99.90;;;;;;5076835;28;20028;-90
2022/01/09 15:16:46;;;;;;;124.70;45.00;;;0.00;99.90;;;;;;5074030;28;20055;-90
2022/01/09 15:19:12;;;;;;;126.75;41.45;;;0.00;99.90;;;;;;5090859;28;20024;-89
2022/01/09 15:21:37;;;;;;;106.68;35.25;;;0.00;99.90;;;;;;5090080;28;20036;-90
2022/01/09 15:24:03;;;;;;;122.95;40.72;;;0.10;99.90;;;;;;5075139;28;20028;-90
2022/01/09 15:26:31;;;;;;;107.10;39.97;;;0.10;99.90;;;;;;5070026;28;20025;-90
2022/01/09 15:28:56;;;;;;;107.18;38.53;;;0.10;99.90;;;;;;5070287;28;20035;-90
2022/01/09 15:31:22;;;;;;;93.88;32.75;;;0.20;99.90;;;;;;5069516;28;20112;-90
2022/01/09 15:33:47;;;;;;;88.05;30.17;;;0.20;99.90;;;;;;5070483;28;20086;-89
2022/01/09 15:36:13;;;;;;;78.45;29.70;;;0.20;99.90;;;;;;5069326;28;20033;-90
2022/01/09 15:38:39;;;;;;;85.72;30.92;;;0.20;99.90;;;;;;5070292;28;20052;-89
2022/01/09 15:41:05;;;;;;;87.18;32.40;;;0.30;99.90;;;;;;5069683;28;20117;-89
2022/01/09 15:43:37;;;;;;;88.15;32.25;;;0.30;99.90;;;;;;5070883;28;20087;-90
2022/01/09 15:46:06;;;;;;;79.88;33.22;;;0.30;99.90;;;;;;5070189;28;20024;-89
2022/01/09 15:48:32;;;;;;;83.60;34.90;;;0.30;99.90;;;;;;5070741;28;20103;-89
2022/01/09 15:50:57;;;;;;;78.53;30.67;;;0.30;99.90;;;;;;5069227;28;20045;-93
2022/01/09 15:53:23;;;;;;;75.57;29.27;;;0.40;99.90;;;;;;5068686;28;20025;-93
2022/01/09 15:55:50;;;;;;;75.55;30.45;;;0.30;99.90;;;;;;5057664;28;20076;-89
2022/01/09 15:58:17;;;;;;;79.38;31.67;;;0.30;99.90;;;;;;5050321;28;20025;-94
2022/01/09 16:00:44;;;;;;;74.90;28.58;;;0.30;99.90;;;;;;5067825;28;20048;-89
2022/01/09 16:03:12;;;;;;;71.72;28.17;;;0.40;99.90;;;;;;5069220;28;20048;-90
2022/01/09 16:05:38;;;;;;;79.43;28.25;;;0.40;99.90;;;;;;5069244;28;20021;-91
2022/01/09 16:08:04;;;;;;;76.03;29.38;;;0.40;99.90;;;;;;5059050;28;20025;-88
2022/01/09 16:10:30;;;;;;;69.72;27.38;;;0.40;99.90;;;;;;5054784;28;20082;-89
2022/01/09 16:12:55;;;;;;;73.03;28.42;;;0.40;99.90;;;;;;5055622;28;20036;-89
2022/01/09 16:15:21;;;;;;;75.38;31.17;;;0.40;99.90;;;;;;5055089;28;20025;-89
2022/01/09 16:17:49;;;;;;;79.20;30.80;;;0.30;99.90;;;;;;5055470;28;20036;-89
2022/01/09 16:20:15;;;;;;;80.65;32.55;;;0.40;99.90;;;;;;5055640;28;20116;-89
2022/01/09 16:22:41;;;;;;;81.35;31.75;;;0.40;99.90;;;;;;5057048;28;20079;-88
2022/01/09 16:25:07;;;;;;;79.10;29.20;;;0.40;99.90;;;;;;5055576;28;20047;-89
2022/01/09 16:27:33;;;;;;;81.50;32.38;;;0.40;99.90;;;;;;5055509;28;20025;-89
2022/01/09 16:30:05;;;;;;;83.82;34.45;;;0.40;99.90;;;;;;5055354;28;20029;-89
2022/01/09 16:32:31;;;;;;;82.15;30.48;;;0.40;99.90;;;;;;5055416;28;20064;-89
2022/01/09 16:34:56;;;;;;;69.40;27.35;;;0.40;99.90;;;;;;5054826;28;20017;-89
2022/01/09 16:37:22;;;;;;;95.35;37.40;;;0.40;99.90;;;;;;5054627;28;20729;-89
2022/01/09 16:39:48;;;;;;;84.38;36.28;;;0.40;99.90;;;;;;5055306;28;20021;-89
2022/01/09 16:42:13;;;;;;;74.32;30.95;;;0.50;99.90;;;;;;5055134;28;20025;-89
2022/01/09 16:44:39;;;;;;;62.70;25.70;;;0.50;99.90;;;;;;5055345;28;20017;-89
2022/01/09 16:47:04;;;;;;;76.13;29.85;;;0.60;99.90;;;;;;5062393;28;20083;-89
2022/01/09 16:49:30;;;;;;;73.82;31.58;;;0.50;99.90;;;;;;5055168;28;20083;-90
2022/01/09 16:51:56;;;;;;;80.53;33.55;;;0.60;99.90;;;;;;5054917;28;20388;-90
2022/01/09 16:54:23;;;;;;;68.13;26.65;;;0.60;99.90;;;;;;5054792;28;20029;-89
2022/01/09 16:56:49;;;;;;;76.68;31.80;;;0.60;99.90;;;;;;5054264;28;20072;-90
2022/01/09 16:59:15;;;;;;;69.40;29.15;;;0.60;99.90;;;;;;5054571;28;20056;-90
2022/01/09 17:01:41;;;;;;;57.70;24.17;;;0.60;99.90;;;;;;5055441;28;20090;-91
2022/01/09 17:04:08;;;;;;;84.15;32.40;;;0.70;99.90;;;;;;5049853;28;20429;-91
2022/01/09 17:06:34;;;;;;;79.05;31.70;;;0.60;99.90;;;;;;5062481;28;20025;-91
2022/01/09 17:08:59;;;;;;;64.43;28.77;;;0.60;99.90;;;;;;5054197;28;20479;-89
2022/01/09 17:11:25;;;;;;;73.55;26.98;;;0.60;99.90;;;;;;5054350;28;20029;-89
2022/01/09 17:13:51;;;;;;;66.00;24.80;;;0.60;99.90;;;;;;5054367;28;20479;-89
2022/01/09 17:16:17;;;;;;;61.28;25.30;;;0.60;99.90;;;;;;5053897;28;20029;-89
2022/01/09 17:18:43;;;;;;;62.88;25.83;;;0.70;99.90;;;;;;5053217;28;20029;-89
2022/01/09 17:21:09;;;;;;;66.15;25.80;;;0.60;99.90;;;;;;5054259;28;20104;-89
2022/01/09 17:23:35;;;;;;;61.45;22.73;;;0.70;99.90;;;;;;5054668;28;20474;-89
2022/01/09 17:26:01;;;;;;;64.63;25.33;;;0.70;99.90;;;;;;5054823;28;20029;-89
2022/01/09 17:28:28;;;;;;;84.40;31.15;;;0.80;99.90;;;;;;5052642;28;20033;-89
2022/01/09 17:30:55;;;;;;;74.90;27.67;;;0.70;99.90;;;;;;5054272;28;20075;-89
2022/01/09 17:33:20;;;;;;;70.55;28.35;;;0.70;99.90;;;;;;5053469;28;20052;-89
2022/01/09 17:35:46;;;;;;;76.40;31.42;;;0.70;99.90;;;;;;5056983;28;20069;-89
2022/01/09 17:38:13;;;;;;;87.30;31.85;;;0.70;99.90;;;;;;5053391;28;20383;-89
2022/01/09 17:40:40;;;;;;;83.78;32.53;;;0.70;99.90;;;;;;5053871;28;20056;-89
2022/01/09 17:43:08;;;;;;;68.60;28.40;;;0.70;99.90;;;;;;5042191;28;20026;-88
2022/01/09 17:45:34;;;;;;;70.95;30.63;;;0.70;99.90;;;;;;5034034;28;20025;-89
2022/01/09 17:47:59;;;;;;;72.38;29.58;;;0.70;99.90;;;;;;5035565;28;20270;-89
2022/01/09 17:50:26;;;;;;;69.47;27.88;;;0.80;99.90;;;;;;5052918;28;20068;-89
2022/01/09 17:52:52;;;;;;;73.50;30.23;;;0.70;99.90;;;;;;5053391;28;20021;-89
2022/01/09 17:55:18;;;;;;;70.82;28.10;;;0.70;99.90;;;;;;5047157;28;20059;-89
2022/01/09 17:57:44;;;;;;;74.90;29.92;;;0.70;99.90;;;;;;5041382;28;20096;-89
2022/01/09 18:00:11;;;;;;;70.80;30.05;;;0.80;99.90;;;;;;5035042;28;20032;-88
2022/01/09 18:02:38;;;;;;;78.00;32.50;;;0.70;99.90;;;;;;5039660;28;20017;-88
2022/01/09 18:05:05;;;;;;;88.97;35.55;;;0.70;99.90;;;;;;5053195;28;20487;-89
2022/01/09 18:07:30;;;;;;;70.38;32.42;;;0.80;99.90;;;;;;5052230;28;20029;-89
2022/01/09 18:09:58;;;;;;;81.57;31.05;;;0.80;99.90;;;;;;5053503;28;20025;-89
2022/01/09 18:12:25;;;;;;;71.20;30.90;;;0.70;99.90;;;;;;5054836;28;20032;-89
2022/01/09 18:14:52;;;;;;;76.53;28.13;;;0.70;99.90;;;;;;5054456;28;20036;-88
2022/01/09 18:17:17;;;;;;;80.15;29.73;;;0.70;99.90;;;;;;5042380;28;20029;-89
2022/01/09 18:19:43;;;;;;;72.15;30.05;;;0.70;99.90;;;;;;5050228;28;20356;-89
2022/01/09 18:22:10;;;;;;;59.78;24.17;;;0.70;99.90;;;;;;5033743;28;20108;-89
2022/01/09 18:24:36;;;;;;;57.53;22.38;;;0.70;99.90;;;;;;5041156;28;20013;-89
2022/01/09 18:27:02;;;;;;;72.97;28.25;;;0.80;99.90;;;;;;5053489;28;20021;-88
2022/01/09 18:29:28;;;;;;;69.22;26.67;;;0.80;99.90;;;;;;5053177;28;20031;-89
2022/01/09 18:31:53;;;;;;;70.47;25.05;;;0.80;99.90;;;;;;5052742;28;20036;-89
2022/01/09 18:34:20;;;;;;;65.38;27.00;;;0.80;99.90;;;;;;5053035;28;20029;-89
2022/01/09 18:36:46;;;;;;;67.10;27.83;;;0.80;99.90;;;;;;5046356;28;20060;-89
2022/01/09 18:39:15;;;;;;;73.30;30.05;;;0.80;99.90;;;;;;5032851;28;20056;-89
2022/01/09 18:41:43;;;;;;;77.55;28.05;;;0.80;99.90;;;;;;5033131;28;20029;-89
2022/01/09 18:44:09;;;;;;;75.32;28.65;;;0.80;99.90;;;;;;5033234;28;20111;-89
2022/01/09 18:46:35;;;;;;;75.03;29.25;;;0.80;99.90;;;;;;5033248;28;20029;-90
2022/01/09 18:49:01;;;;;;;73.32;27.83;;;0.80;99.90;;;;;;5033404;28;20056;-89
2022/01/09 18:51:27;;;;;;;70.32;26.90;;;0.80;99.90;;;;;;5033267;28;20033;-89
2022/01/09 18:53:53;;;;;;;77.53;29.35;;;0.80;99.90;;;;;;5034599;28;20060;-89
2022/01/09 18:56:19;;;;;;;70.20;28.33;;;0.80;99.90;;;;;;5032944;28;20046;-89
2022/01/09 18:58:45;;;;;;;75.45;25.30;;;0.80;99.90;;;;;;5046094;28;20536;-90
2022/01/09 19:01:11;;;;;;;65.00;25.35;;;0.80;99.90;;;;;;5044613;28;20025;-90
2022/01/09 19:03:37;;;;;;;68.93;26.60;;;0.90;99.90;;;;;;5052187;28;20024;-90
2022/01/09 19:06:03;;;;;;;71.53;27.05;;;0.90;99.90;;;;;;5052652;28;20086;-90
2022/01/09 19:08:30;;;;;;;75.10;27.45;;;0.90;99.90;;;;;;5052802;28;20383;-90
2022/01/09 19:10:57;;;;;;;77.85;27.52;;;0.90;99.90;;;;;;5053081;28;20467;-90
2022/01/09 19:13:24;;;;;;;72.28;27.48;;;0.90;99.90;;;;;;5045743;28;20190;-90
2022/01/09 19:15:51;;;;;;;80.82;28.70;;;1.00;99.90;;;;;;5048682;28;20040;-90
2022/01/09 19:18:19;;;;;;;70.05;27.13;;;1.00;99.90;;;;;;5034246;28;20026;-90
2022/01/09 19:20:45;;;;;;;81.07;30.67;;;1.00;99.90;;;;;;5052806;28;20055;-90
2022/01/09 19:23:10;;;;;;;81.93;29.02;;;1.00;99.90;;;;;;5052730;28;20029;-90
2022/01/09 19:25:37;;;;;;;73.75;27.05;;;1.00;99.90;;;;;;5052876;28;20025;-90
2022/01/09 19:28:03;;;;;;;76.13;26.55;;;1.00;99.90;;;;;;5052757;28;20032;-90
2022/01/09 19:30:30;;;;;;;71.65;27.17;;;1.10;99.90;;;;;;5052872;28;20028;-89
2022/01/09 19:32:56;;;;;;;82.22;28.88;;;1.10;99.90;;;;;;5052838;28;20032;-90
2022/01/09 19:35:22;;;;;;;82.18;28.13;;;1.10;99.90;;;;;;5052620;28;20033;-90
2022/01/09 19:37:48;;;;;;;74.50;27.98;;;1.10;99.90;;;;;;5052734;28;20021;-90
2022/01/09 19:40:14;;;;;;;76.03;30.02;;;1.10;99.90;;;;;;5051593;28;20468;-90
2022/01/09 19:42:41;;;;;;;75.60;28.10;;;1.10;99.90;;;;;;5053532;28;20028;-90
2022/01/09 19:45:08;;;;;;;72.93;27.85;;;1.10;99.90;;;;;;5055867;28;20472;-90
2022/01/09 19:47:36;;;;;;;74.72;28.52;;;1.10;99.90;;;;;;5056237;28;20021;-90
2022/01/09 19:50:03;;;;;;;75.00;30.27;;;1.10;99.90;;;;;;5056191;28;20027;-90
2022/01/09 19:52:31;;;;;;;74.65;27.50;;;1.10;99.90;;;;;;5056889;28;20103;-90
2022/01/09 19:54:57;;;;;;;78.75;27.67;;;1.10;99.90;;;;;;5055325;28;20013;-90
2022/01/09 19:57:23;;;;;;;74.72;27.85;;;1.10;99.90;;;;;;5019343;28;20030;-90
2022/01/09 19:59:49;;;;;;;75.38;28.42;;;1.10;99.90;;;;;;5019027;28;20411;-90
2022/01/09 20:02:15;;;;;;;81.47;27.95;;;1.10;99.90;;;;;;5019672;28;20021;-90
2022/01/09 20:04:41;;;;;;;84.80;29.55;;;1.10;99.90;;;;;;5019486;28;20075;-89
2022/01/09 20:07:08;;;;;;;79.43;28.95;;;1.10;99.90;;;;;;5005865;28;20025;-90
2022/01/09 20:09:34;;;;;;;89.60;31.27;;;1.10;99.90;;;;;;5006869;28;20041;-90
2022/01/09 20:12:01;;;;;;;90.30;31.00;;;1.10;99.90;;;;;;5016523;28;20029;-90
2022/01/09 20:14:27;;;;;;;83.30;28.08;;;1.00;99.90;;;;;;5018972;28;20033;-90
2022/01/09 20:16:53;;;;;;;85.53;28.27;;;1.10;99.90;;;;;;5019516;28;20026;-89
2022/01/09 20:19:18;;;;;;;82.63;28.70;;;1.10;99.90;;;;;;5019441;28;20033;-90
2022/01/09 20:21:46;;;;;;;84.10;29.30;;;1.10;99.90;;;;;;5019280;28;20028;-89
2022/01/09 20:24:13;;;;;;;79.70;29.85;;;1.10;99.90;;;;;;5019143;28;20033;-90